sensor_id;sensor_type;location;lat;lon;timestamp;P1;durP1;ratioP1;P2;durP2;ratioP2
20611;SDS011;10465;42.686;23.364;2023-08-01T00:01:50;2.55;;;2.15;;
20611;SDS011;10465;42.686;23.364;2023-08-01T00:04:16;2.30;;;2.10;;
20611;SDS011;10465;42.686;23.364;2023-08-01T00:06:41;2.90;;;2.45;;
20611;SDS011;10465;42.686;23.364;2023-08-01T00:09:07;3.83;;;2.20;;
20611;SDS011;10465;42.686;23.364;2023-08-01T00:11:32;2.67;;;2.00;;
20611;SDS011;10465;42.686;23.364;2023-08-01T00:13:58;4.55;;;2.47;;
20611;SDS011;10465;42.686;23.364;2023-08-01T00:16:23;3.75;;;2.38;;
20611;SDS011;10465;42.686;23.364;2023-08-01T00:18:49;3.60;;;2.50;;
20611;SDS011;10465;42.686;23.364;2023-08-01T00:21:15;2.90;;;2.35;;
20611;SDS011;10465;42.686;23.364;2023-08-01T00:23:40;2.80;;;2.30;;
20611;SDS011;10465;42.686;23.364;2023-08-01T00:26:06;2.58;;;2.20;;
20611;SDS011;10465;42.686;23.364;2023-08-01T00:28:32;2.50;;;2.30;;
20611;SDS011;10465;42.686;23.364;2023-08-01T00:31:05;2.70;;;2.22;;
20611;SDS011;10465;42.686;23.364;2023-08-01T00:33:33;3.88;;;2.35;;
20611;SDS011;10465;42.686;23.364;2023-08-01T00:35:59;4.13;;;2.42;;
20611;SDS011;10465;42.686;23.364;2023-08-01T00:38:24;3.17;;;2.20;;
20611;SDS011;10465;42.686;23.364;2023-08-01T00:40:50;3.17;;;2.13;;
20611;SDS011;10465;42.686;23.364;2023-08-01T00:43:15;4.53;;;2.08;;
20611;SDS011;10465;42.686;23.364;2023-08-01T00:45:41;2.70;;;2.05;;
20611;SDS011;10465;42.686;23.364;2023-08-01T00:48:07;2.42;;;2.15;;
20611;SDS011;10465;42.686;23.364;2023-08-01T00:50:33;3.55;;;2.28;;
20611;SDS011;10465;42.686;23.364;2023-08-01T00:52:58;2.35;;;2.13;;
20611;SDS011;10465;42.686;23.364;2023-08-01T00:55:24;2.95;;;2.30;;
20611;SDS011;10465;42.686;23.364;2023-08-01T00:57:52;2.90;;;2.60;;
20611;SDS011;10465;42.686;23.364;2023-08-01T01:00:18;3.38;;;2.58;;
20611;SDS011;10465;42.686;23.364;2023-08-01T01:02:44;4.32;;;2.78;;
20611;SDS011;10465;42.686;23.364;2023-08-01T01:05:09;3.92;;;3.00;;
20611;SDS011;10465;42.686;23.364;2023-08-01T01:07:35;5.63;;;3.10;;
20611;SDS011;10465;42.686;23.364;2023-08-01T01:10:02;4.10;;;3.00;;
20611;SDS011;10465;42.686;23.364;2023-08-01T01:12:28;3.35;;;3.05;;
20611;SDS011;10465;42.686;23.364;2023-08-01T01:14:53;3.95;;;3.50;;
20611;SDS011;10465;42.686;23.364;2023-08-01T01:17:19;4.90;;;3.60;;
20611;SDS011;10465;42.686;23.364;2023-08-01T01:19:44;5.70;;;4.60;;
20611;SDS011;10465;42.686;23.364;2023-08-01T01:22:10;7.97;;;5.05;;
20611;SDS011;10465;42.686;23.364;2023-08-01T01:24:36;5.10;;;4.60;;
20611;SDS011;10465;42.686;23.364;2023-08-01T01:27:03;6.28;;;5.03;;
20611;SDS011;10465;42.686;23.364;2023-08-01T01:29:29;5.00;;;4.57;;
20611;SDS011;10465;42.686;23.364;2023-08-01T01:31:58;7.15;;;5.32;;
20611;SDS011;10465;42.686;23.364;2023-08-01T01:34:25;5.25;;;4.57;;
20611;SDS011;10465;42.686;23.364;2023-08-01T01:36:52;6.07;;;5.47;;
20611;SDS011;10465;42.686;23.364;2023-08-01T01:39:17;5.47;;;4.68;;
20611;SDS011;10465;42.686;23.364;2023-08-01T01:41:43;11.95;;;4.80;;
20611;SDS011;10465;42.686;23.364;2023-08-01T01:44:08;8.50;;;5.20;;
20611;SDS011;10465;42.686;23.364;2023-08-01T01:46:34;8.02;;;6.18;;
20611;SDS011;10465;42.686;23.364;2023-08-01T01:48:59;6.38;;;5.47;;
20611;SDS011;10465;42.686;23.364;2023-08-01T01:51:28;5.90;;;5.30;;
20611;SDS011;10465;42.686;23.364;2023-08-01T01:53:55;8.00;;;5.80;;
20611;SDS011;10465;42.686;23.364;2023-08-01T01:56:20;6.18;;;5.57;;
20611;SDS011;10465;42.686;23.364;2023-08-01T01:58:46;6.97;;;6.32;;
20611;SDS011;10465;42.686;23.364;2023-08-01T02:01:12;6.65;;;5.95;;
20611;SDS011;10465;42.686;23.364;2023-08-01T02:03:37;7.75;;;6.50;;
20611;SDS011;10465;42.686;23.364;2023-08-01T02:06:03;6.90;;;6.18;;
20611;SDS011;10465;42.686;23.364;2023-08-01T02:08:29;9.02;;;5.93;;
20611;SDS011;10465;42.686;23.364;2023-08-01T02:10:55;7.70;;;6.35;;
20611;SDS011;10465;42.686;23.364;2023-08-01T02:13:23;7.28;;;6.40;;
20611;SDS011;10465;42.686;23.364;2023-08-01T02:15:49;8.27;;;5.93;;
20611;SDS011;10465;42.686;23.364;2023-08-01T02:18:14;7.82;;;6.78;;
20611;SDS011;10465;42.686;23.364;2023-08-01T02:20:40;8.93;;;6.00;;
20611;SDS011;10465;42.686;23.364;2023-08-01T02:23:05;7.75;;;6.50;;
20611;SDS011;10465;42.686;23.364;2023-08-01T02:25:31;9.98;;;6.57;;
20611;SDS011;10465;42.686;23.364;2023-08-01T02:27:56;6.97;;;6.10;;
20611;SDS011;10465;42.686;23.364;2023-08-01T02:30:22;6.53;;;5.88;;
20611;SDS011;10465;42.686;23.364;2023-08-01T02:32:47;7.45;;;6.15;;
20611;SDS011;10465;42.686;23.364;2023-08-01T02:35:13;8.48;;;6.40;;
20611;SDS011;10465;42.686;23.364;2023-08-01T02:37:38;6.75;;;6.10;;
20611;SDS011;10465;42.686;23.364;2023-08-01T02:40:04;6.50;;;5.85;;
20611;SDS011;10465;42.686;23.364;2023-08-01T02:42:32;6.10;;;5.00;;
20611;SDS011;10465;42.686;23.364;2023-08-01T02:44:58;6.43;;;5.47;;
20611;SDS011;10465;42.686;23.364;2023-08-01T02:47:23;6.45;;;5.80;;
20611;SDS011;10465;42.686;23.364;2023-08-01T02:49:49;7.28;;;5.85;;
20611;SDS011;10465;42.686;23.364;2023-08-01T02:52:14;6.75;;;6.05;;
20611;SDS011;10465;42.686;23.364;2023-08-01T02:54:40;6.75;;;5.93;;
20611;SDS011;10465;42.686;23.364;2023-08-01T02:57:05;6.13;;;5.40;;
20611;SDS011;10465;42.686;23.364;2023-08-01T02:59:31;6.57;;;5.97;;
20611;SDS011;10465;42.686;23.364;2023-08-01T03:01:58;13.88;;;10.35;;
20611;SDS011;10465;42.686;23.364;2023-08-01T03:04:24;34.20;;;30.48;;
20611;SDS011;10465;42.686;23.364;2023-08-01T03:06:49;33.58;;;30.02;;
20611;SDS011;10465;42.686;23.364;2023-08-01T03:09:15;19.15;;;17.25;;
20611;SDS011;10465;42.686;23.364;2023-08-01T03:11:41;16.05;;;14.45;;
20611;SDS011;10465;42.686;23.364;2023-08-01T03:14:06;17.85;;;14.77;;
20611;SDS011;10465;42.686;23.364;2023-08-01T03:16:32;15.05;;;12.57;;
20611;SDS011;10465;42.686;23.364;2023-08-01T03:18:58;12.60;;;10.13;;
20611;SDS011;10465;42.686;23.364;2023-08-01T03:21:29;10.57;;;9.32;;
20611;SDS011;10465;42.686;23.364;2023-08-01T03:23:56;11.52;;;9.00;;
20611;SDS011;10465;42.686;23.364;2023-08-01T03:26:22;9.73;;;8.02;;
20611;SDS011;10465;42.686;23.364;2023-08-01T03:28:47;8.05;;;6.57;;
20611;SDS011;10465;42.686;23.364;2023-08-01T03:31:13;6.70;;;5.70;;
20611;SDS011;10465;42.686;23.364;2023-08-01T03:33:38;6.18;;;5.28;;
20611;SDS011;10465;42.686;23.364;2023-08-01T03:36:04;6.38;;;4.90;;
20611;SDS011;10465;42.686;23.364;2023-08-01T03:38:30;5.25;;;4.75;;
20611;SDS011;10465;42.686;23.364;2023-08-01T03:40:55;7.05;;;4.78;;
20611;SDS011;10465;42.686;23.364;2023-08-01T03:43:21;5.70;;;5.03;;
20611;SDS011;10465;42.686;23.364;2023-08-01T03:45:48;5.35;;;4.65;;
20611;SDS011;10465;42.686;23.364;2023-08-01T03:48:14;5.63;;;5.00;;
20611;SDS011;10465;42.686;23.364;2023-08-01T03:50:40;5.68;;;5.18;;
20611;SDS011;10465;42.686;23.364;2023-08-01T03:53:05;5.65;;;4.82;;
20611;SDS011;10465;42.686;23.364;2023-08-01T03:55:32;5.80;;;5.20;;
20611;SDS011;10465;42.686;23.364;2023-08-01T03:57:58;7.07;;;5.43;;
20611;SDS011;10465;42.686;23.364;2023-08-01T04:00:23;5.57;;;4.88;;
20611;SDS011;10465;42.686;23.364;2023-08-01T04:02:49;5.55;;;5.05;;
20611;SDS011;10465;42.686;23.364;2023-08-01T04:05:14;6.50;;;5.20;;
20611;SDS011;10465;42.686;23.364;2023-08-01T04:07:40;6.07;;;5.47;;
20611;SDS011;10465;42.686;23.364;2023-08-01T04:10:06;5.50;;;5.00;;
20611;SDS011;10465;42.686;23.364;2023-08-01T04:12:32;5.35;;;4.43;;
20611;SDS011;10465;42.686;23.364;2023-08-01T04:14:58;6.78;;;4.93;;
20611;SDS011;10465;42.686;23.364;2023-08-01T04:17:24;5.72;;;5.03;;
20611;SDS011;10465;42.686;23.364;2023-08-01T04:19:50;5.05;;;4.65;;
20611;SDS011;10465;42.686;23.364;2023-08-01T04:22:15;5.50;;;4.97;;
20611;SDS011;10465;42.686;23.364;2023-08-01T04:24:41;5.50;;;5.00;;
20611;SDS011;10465;42.686;23.364;2023-08-01T04:27:06;24.58;;;17.42;;
20611;SDS011;10465;42.686;23.364;2023-08-01T04:29:32;10.18;;;8.00;;
20611;SDS011;10465;42.686;23.364;2023-08-01T04:31:57;11.75;;;8.80;;
20611;SDS011;10465;42.686;23.364;2023-08-01T04:34:23;10.15;;;6.05;;
20611;SDS011;10465;42.686;23.364;2023-08-01T04:36:48;5.93;;;5.32;;
20611;SDS011;10465;42.686;23.364;2023-08-01T04:39:13;7.38;;;4.75;;
20611;SDS011;10465;42.686;23.364;2023-08-01T04:41:39;5.75;;;5.22;;
20611;SDS011;10465;42.686;23.364;2023-08-01T04:44:04;5.60;;;5.10;;
20611;SDS011;10465;42.686;23.364;2023-08-01T04:46:31;6.50;;;5.82;;
20611;SDS011;10465;42.686;23.364;2023-08-01T04:48:57;9.85;;;6.38;;
20611;SDS011;10465;42.686;23.364;2023-08-01T04:51:23;6.97;;;5.80;;
20611;SDS011;10465;42.686;23.364;2023-08-01T04:53:49;6.75;;;5.65;;
20611;SDS011;10465;42.686;23.364;2023-08-01T04:56:15;6.50;;;5.90;;
20611;SDS011;10465;42.686;23.364;2023-08-01T04:58:40;5.72;;;4.78;;
20611;SDS011;10465;42.686;23.364;2023-08-01T05:01:06;8.00;;;4.63;;
20611;SDS011;10465;42.686;23.364;2023-08-01T05:03:31;6.20;;;4.90;;
20611;SDS011;10465;42.686;23.364;2023-08-01T05:05:57;6.38;;;4.95;;
20611;SDS011;10465;42.686;23.364;2023-08-01T05:08:22;7.65;;;6.00;;
20611;SDS011;10465;42.686;23.364;2023-08-01T05:10:48;8.40;;;6.47;;
20611;SDS011;10465;42.686;23.364;2023-08-01T05:13:13;10.93;;;6.53;;
20611;SDS011;10465;42.686;23.364;2023-08-01T05:15:39;6.38;;;5.78;;
20611;SDS011;10465;42.686;23.364;2023-08-01T05:18:04;8.70;;;5.63;;
20611;SDS011;10465;42.686;23.364;2023-08-01T05:20:30;7.95;;;5.35;;
20611;SDS011;10465;42.686;23.364;2023-08-01T05:22:59;9.88;;;5.50;;
20611;SDS011;10465;42.686;23.364;2023-08-01T05:25:25;7.32;;;4.88;;
20611;SDS011;10465;42.686;23.364;2023-08-01T05:27:50;4.00;;;3.60;;
20611;SDS011;10465;42.686;23.364;2023-08-01T05:30:16;5.95;;;5.18;;
20611;SDS011;10465;42.686;23.364;2023-08-01T05:32:41;5.85;;;4.72;;
20611;SDS011;10465;42.686;23.364;2023-08-01T05:35:08;9.43;;;4.65;;
20611;SDS011;10465;42.686;23.364;2023-08-01T05:37:34;5.78;;;4.68;;
20611;SDS011;10465;42.686;23.364;2023-08-01T05:40:01;7.20;;;5.30;;
20611;SDS011;10465;42.686;23.364;2023-08-01T05:42:28;5.95;;;4.70;;
20611;SDS011;10465;42.686;23.364;2023-08-01T05:44:53;7.22;;;4.70;;
20611;SDS011;10465;42.686;23.364;2023-08-01T05:47:19;7.68;;;5.15;;
20611;SDS011;10465;42.686;23.364;2023-08-01T05:49:44;6.55;;;4.82;;
20611;SDS011;10465;42.686;23.364;2023-08-01T05:52:10;6.63;;;5.15;;
20611;SDS011;10465;42.686;23.364;2023-08-01T05:54:35;7.18;;;5.28;;
20611;SDS011;10465;42.686;23.364;2023-08-01T05:57:01;9.07;;;5.70;;
20611;SDS011;10465;42.686;23.364;2023-08-01T05:59:26;7.32;;;4.60;;
20611;SDS011;10465;42.686;23.364;2023-08-01T06:01:52;7.97;;;5.60;;
20611;SDS011;10465;42.686;23.364;2023-08-01T06:04:17;7.53;;;5.55;;
20611;SDS011;10465;42.686;23.364;2023-08-01T06:06:42;6.63;;;5.28;;
20611;SDS011;10465;42.686;23.364;2023-08-01T06:09:08;6.63;;;4.88;;
20611;SDS011;10465;42.686;23.364;2023-08-01T06:11:33;5.82;;;5.13;;
20611;SDS011;10465;42.686;23.364;2023-08-01T06:13:59;8.35;;;5.05;;
20611;SDS011;10465;42.686;23.364;2023-08-01T06:16:25;9.73;;;5.32;;
20611;SDS011;10465;42.686;23.364;2023-08-01T06:18:51;5.95;;;5.20;;
20611;SDS011;10465;42.686;23.364;2023-08-01T06:21:16;6.25;;;5.60;;
20611;SDS011;10465;42.686;23.364;2023-08-01T06:23:42;5.80;;;4.47;;
20611;SDS011;10465;42.686;23.364;2023-08-01T06:26:07;6.40;;;5.20;;
20611;SDS011;10465;42.686;23.364;2023-08-01T06:28:33;6.10;;;4.80;;
20611;SDS011;10465;42.686;23.364;2023-08-01T06:30:58;10.60;;;5.97;;
20611;SDS011;10465;42.686;23.364;2023-08-01T06:33:23;7.18;;;4.78;;
20611;SDS011;10465;42.686;23.364;2023-08-01T06:35:49;7.72;;;4.63;;
20611;SDS011;10465;42.686;23.364;2023-08-01T06:38:14;5.32;;;4.82;;
20611;SDS011;10465;42.686;23.364;2023-08-01T06:40:40;6.80;;;4.22;;
20611;SDS011;10465;42.686;23.364;2023-08-01T06:43:05;6.03;;;4.82;;
20611;SDS011;10465;42.686;23.364;2023-08-01T06:45:31;7.90;;;4.18;;
20611;SDS011;10465;42.686;23.364;2023-08-01T06:47:56;7.55;;;4.60;;
20611;SDS011;10465;42.686;23.364;2023-08-01T06:50:22;6.45;;;4.32;;
20611;SDS011;10465;42.686;23.364;2023-08-01T06:52:48;5.07;;;4.45;;
20611;SDS011;10465;42.686;23.364;2023-08-01T06:55:13;5.05;;;4.07;;
20611;SDS011;10465;42.686;23.364;2023-08-01T06:57:39;5.35;;;3.50;;
20611;SDS011;10465;42.686;23.364;2023-08-01T07:00:04;5.40;;;4.03;;
20611;SDS011;10465;42.686;23.364;2023-08-01T07:02:30;4.35;;;3.92;;
20611;SDS011;10465;42.686;23.364;2023-08-01T07:04:56;6.63;;;4.45;;
20611;SDS011;10465;42.686;23.364;2023-08-01T07:07:22;5.88;;;4.13;;
20611;SDS011;10465;42.686;23.364;2023-08-01T07:09:47;7.25;;;4.72;;
20611;SDS011;10465;42.686;23.364;2023-08-01T07:12:13;6.65;;;4.30;;
20611;SDS011;10465;42.686;23.364;2023-08-01T07:14:39;8.10;;;4.63;;
20611;SDS011;10465;42.686;23.364;2023-08-01T07:17:04;6.47;;;4.47;;
20611;SDS011;10465;42.686;23.364;2023-08-01T07:19:30;8.05;;;4.78;;
20611;SDS011;10465;42.686;23.364;2023-08-01T07:21:55;5.32;;;4.32;;
20611;SDS011;10465;42.686;23.364;2023-08-01T07:24:21;5.53;;;4.20;;
20611;SDS011;10465;42.686;23.364;2023-08-01T07:26:46;6.95;;;4.32;;
20611;SDS011;10465;42.686;23.364;2023-08-01T07:29:12;8.40;;;4.65;;
20611;SDS011;10465;42.686;23.364;2023-08-01T07:31:40;7.70;;;4.03;;
20611;SDS011;10465;42.686;23.364;2023-08-01T07:34:06;7.25;;;4.03;;
20611;SDS011;10465;42.686;23.364;2023-08-01T07:36:32;7.70;;;4.60;;
20611;SDS011;10465;42.686;23.364;2023-08-01T07:38:57;7.15;;;4.50;;
20611;SDS011;10465;42.686;23.364;2023-08-01T07:41:23;6.22;;;4.63;;
20611;SDS011;10465;42.686;23.364;2023-08-01T07:43:49;6.78;;;4.40;;
20611;SDS011;10465;42.686;23.364;2023-08-01T07:46:14;6.30;;;4.07;;
20611;SDS011;10465;42.686;23.364;2023-08-01T07:48:39;7.18;;;4.53;;
20611;SDS011;10465;42.686;23.364;2023-08-01T07:51:05;6.53;;;4.95;;
20611;SDS011;10465;42.686;23.364;2023-08-01T07:53:32;4.97;;;3.70;;
20611;SDS011;10465;42.686;23.364;2023-08-01T07:56:01;7.65;;;4.90;;
20611;SDS011;10465;42.686;23.364;2023-08-01T07:58:27;5.88;;;3.70;;
20611;SDS011;10465;42.686;23.364;2023-08-01T08:00:53;5.63;;;4.38;;
20611;SDS011;10465;42.686;23.364;2023-08-01T08:03:19;4.75;;;3.80;;
20611;SDS011;10465;42.686;23.364;2023-08-01T08:05:47;5.13;;;4.10;;
20611;SDS011;10465;42.686;23.364;2023-08-01T08:08:13;8.63;;;4.35;;
20611;SDS011;10465;42.686;23.364;2023-08-01T08:10:38;8.88;;;4.53;;
20611;SDS011;10465;42.686;23.364;2023-08-01T08:13:04;7.03;;;4.40;;
20611;SDS011;10465;42.686;23.364;2023-08-01T08:15:29;6.55;;;4.10;;
20611;SDS011;10465;42.686;23.364;2023-08-01T08:17:58;5.97;;;3.80;;
20611;SDS011;10465;42.686;23.364;2023-08-01T08:20:24;9.45;;;4.60;;
20611;SDS011;10465;42.686;23.364;2023-08-01T08:22:50;5.50;;;4.70;;
20611;SDS011;10465;42.686;23.364;2023-08-01T08:25:15;5.20;;;3.97;;
20611;SDS011;10465;42.686;23.364;2023-08-01T08:27:41;7.72;;;4.28;;
20611;SDS011;10465;42.686;23.364;2023-08-01T08:30:06;8.18;;;4.25;;
20611;SDS011;10465;42.686;23.364;2023-08-01T08:32:32;6.90;;;4.05;;
20611;SDS011;10465;42.686;23.364;2023-08-01T08:34:58;5.63;;;4.05;;
20611;SDS011;10465;42.686;23.364;2023-08-01T08:37:23;6.80;;;3.92;;
20611;SDS011;10465;42.686;23.364;2023-08-01T08:39:49;5.80;;;4.45;;
20611;SDS011;10465;42.686;23.364;2023-08-01T08:42:14;6.20;;;4.25;;
20611;SDS011;10465;42.686;23.364;2023-08-01T08:44:43;5.68;;;3.95;;
20611;SDS011;10465;42.686;23.364;2023-08-01T08:47:09;5.45;;;4.25;;
20611;SDS011;10465;42.686;23.364;2023-08-01T08:49:37;4.25;;;3.85;;
20611;SDS011;10465;42.686;23.364;2023-08-01T08:52:05;7.32;;;4.20;;
20611;SDS011;10465;42.686;23.364;2023-08-01T08:54:30;4.32;;;3.42;;
20611;SDS011;10465;42.686;23.364;2023-08-01T08:56:56;4.80;;;3.72;;
20611;SDS011;10465;42.686;23.364;2023-08-01T08:59:24;4.57;;;4.18;;
20611;SDS011;10465;42.686;23.364;2023-08-01T09:01:52;8.23;;;3.50;;
20611;SDS011;10465;42.686;23.364;2023-08-01T09:04:17;7.15;;;3.65;;
20611;SDS011;10465;42.686;23.364;2023-08-01T09:06:48;7.22;;;3.30;;
20611;SDS011;10465;42.686;23.364;2023-08-01T09:09:15;3.95;;;3.30;;
20611;SDS011;10465;42.686;23.364;2023-08-01T09:11:44;4.95;;;3.88;;
20611;SDS011;10465;42.686;23.364;2023-08-01T09:14:17;6.05;;;3.65;;
20611;SDS011;10465;42.686;23.364;2023-08-01T09:16:43;4.57;;;3.67;;
20611;SDS011;10465;42.686;23.364;2023-08-01T09:19:10;7.63;;;3.53;;
20611;SDS011;10465;42.686;23.364;2023-08-01T09:21:38;3.97;;;3.58;;
20611;SDS011;10465;42.686;23.364;2023-08-01T09:24:14;4.78;;;3.45;;
20611;SDS011;10465;42.686;23.364;2023-08-01T09:26:41;5.63;;;3.75;;
20611;SDS011;10465;42.686;23.364;2023-08-01T09:29:06;4.53;;;3.80;;
20611;SDS011;10465;42.686;23.364;2023-08-01T09:31:33;4.72;;;4.30;;
20611;SDS011;10465;42.686;23.364;2023-08-01T09:34:00;4.90;;;3.60;;
20611;SDS011;10465;42.686;23.364;2023-08-01T09:36:29;5.68;;;4.40;;
20611;SDS011;10465;42.686;23.364;2023-08-01T09:39:01;4.95;;;4.03;;
20611;SDS011;10465;42.686;23.364;2023-08-01T09:41:28;5.38;;;3.97;;
20611;SDS011;10465;42.686;23.364;2023-08-01T09:43:55;6.57;;;3.63;;
20611;SDS011;10465;42.686;23.364;2023-08-01T09:46:21;4.68;;;3.70;;
20611;SDS011;10465;42.686;23.364;2023-08-01T09:48:47;5.93;;;4.07;;
20611;SDS011;10465;42.686;23.364;2023-08-01T09:51:16;6.78;;;4.20;;
20611;SDS011;10465;42.686;23.364;2023-08-01T09:53:46;4.15;;;3.72;;
20611;SDS011;10465;42.686;23.364;2023-08-01T09:56:18;6.68;;;4.10;;
20611;SDS011;10465;42.686;23.364;2023-08-01T09:58:48;5.90;;;4.10;;
20611;SDS011;10465;42.686;23.364;2023-08-01T10:01:16;4.30;;;3.90;;
20611;SDS011;10465;42.686;23.364;2023-08-01T10:03:49;7.47;;;4.10;;
20611;SDS011;10465;42.686;23.364;2023-08-01T10:06:20;4.47;;;3.85;;
20611;SDS011;10465;42.686;23.364;2023-08-01T10:08:47;5.07;;;3.97;;
20611;SDS011;10465;42.686;23.364;2023-08-01T10:11:16;8.57;;;4.15;;
20611;SDS011;10465;42.686;23.364;2023-08-01T10:13:42;5.82;;;4.63;;
20611;SDS011;10465;42.686;23.364;2023-08-01T10:16:09;4.25;;;3.85;;
20611;SDS011;10465;42.686;23.364;2023-08-01T10:18:36;5.97;;;4.28;;
20611;SDS011;10465;42.686;23.364;2023-08-01T10:21:03;6.72;;;4.28;;
20611;SDS011;10465;42.686;23.364;2023-08-01T10:23:30;5.32;;;4.18;;
20611;SDS011;10465;42.686;23.364;2023-08-01T10:25:58;7.32;;;4.82;;
20611;SDS011;10465;42.686;23.364;2023-08-01T10:28:31;5.45;;;4.95;;
20611;SDS011;10465;42.686;23.364;2023-08-01T10:31:10;5.53;;;4.35;;
20611;SDS011;10465;42.686;23.364;2023-08-01T10:33:38;6.60;;;4.32;;
20611;SDS011;10465;42.686;23.364;2023-08-01T10:36:15;7.82;;;4.25;;
20611;SDS011;10465;42.686;23.364;2023-08-01T10:41:24;4.80;;;4.22;;
20611;SDS011;10465;42.686;23.364;2023-08-01T10:43:52;7.68;;;4.53;;
20611;SDS011;10465;42.686;23.364;2023-08-01T10:46:17;4.93;;;4.35;;
20611;SDS011;10465;42.686;23.364;2023-08-01T10:48:50;6.22;;;4.20;;
20611;SDS011;10465;42.686;23.364;2023-08-01T10:51:16;8.82;;;4.90;;
20611;SDS011;10465;42.686;23.364;2023-08-01T10:53:42;5.22;;;4.60;;
20611;SDS011;10465;42.686;23.364;2023-08-01T10:56:07;5.97;;;4.55;;
20611;SDS011;10465;42.686;23.364;2023-08-01T10:58:33;5.25;;;4.40;;
20611;SDS011;10465;42.686;23.364;2023-08-01T11:00:59;6.10;;;4.50;;
20611;SDS011;10465;42.686;23.364;2023-08-01T11:03:35;6.13;;;4.30;;
20611;SDS011;10465;42.686;23.364;2023-08-01T11:06:01;4.60;;;4.20;;
20611;SDS011;10465;42.686;23.364;2023-08-01T11:08:37;4.60;;;4.20;;
20611;SDS011;10465;42.686;23.364;2023-08-01T11:11:07;4.90;;;4.28;;
20611;SDS011;10465;42.686;23.364;2023-08-01T11:13:35;6.18;;;4.45;;
20611;SDS011;10465;42.686;23.364;2023-08-01T11:16:05;5.57;;;4.00;;
20611;SDS011;10465;42.686;23.364;2023-08-01T11:18:43;7.55;;;4.20;;
20611;SDS011;10465;42.686;23.364;2023-08-01T11:21:09;4.90;;;3.63;;
20611;SDS011;10465;42.686;23.364;2023-08-01T11:23:35;4.50;;;3.70;;
20611;SDS011;10465;42.686;23.364;2023-08-01T11:26:10;4.90;;;4.45;;
20611;SDS011;10465;42.686;23.364;2023-08-01T11:28:36;6.82;;;4.07;;
20611;SDS011;10465;42.686;23.364;2023-08-01T11:31:10;3.95;;;3.55;;
20611;SDS011;10465;42.686;23.364;2023-08-01T11:33:38;8.73;;;4.32;;
20611;SDS011;10465;42.686;23.364;2023-08-01T11:36:04;9.23;;;4.03;;
20611;SDS011;10465;42.686;23.364;2023-08-01T11:38:31;4.85;;;3.92;;
20611;SDS011;10465;42.686;23.364;2023-08-01T11:40:59;3.90;;;3.60;;
20611;SDS011;10465;42.686;23.364;2023-08-01T11:43:25;6.93;;;4.20;;
20611;SDS011;10465;42.686;23.364;2023-08-01T11:45:54;5.05;;;3.80;;
20611;SDS011;10465;42.686;23.364;2023-08-01T11:48:21;5.38;;;3.83;;
20611;SDS011;10465;42.686;23.364;2023-08-01T11:51:00;4.50;;;4.10;;
20611;SDS011;10465;42.686;23.364;2023-08-01T11:53:26;6.10;;;3.65;;
20611;SDS011;10465;42.686;23.364;2023-08-01T11:55:52;5.65;;;3.90;;
20611;SDS011;10465;42.686;23.364;2023-08-01T11:58:30;5.30;;;3.80;;
20611;SDS011;10465;42.686;23.364;2023-08-01T12:03:46;5.40;;;4.00;;
20611;SDS011;10465;42.686;23.364;2023-08-01T12:06:12;5.20;;;3.72;;
20611;SDS011;10465;42.686;23.364;2023-08-01T12:08:39;7.13;;;3.78;;
20611;SDS011;10465;42.686;23.364;2023-08-01T12:11:06;7.45;;;4.18;;
20611;SDS011;10465;42.686;23.364;2023-08-01T12:13:42;5.10;;;3.70;;
20611;SDS011;10465;42.686;23.364;2023-08-01T12:16:07;4.72;;;3.70;;
20611;SDS011;10465;42.686;23.364;2023-08-01T12:18:33;5.65;;;3.65;;
20611;SDS011;10465;42.686;23.364;2023-08-01T12:20:58;4.30;;;3.90;;
20611;SDS011;10465;42.686;23.364;2023-08-01T12:23:24;6.35;;;3.85;;
20611;SDS011;10465;42.686;23.364;2023-08-01T12:25:49;6.70;;;3.60;;
20611;SDS011;10465;42.686;23.364;2023-08-01T12:28:15;4.18;;;3.78;;
20611;SDS011;10465;42.686;23.364;2023-08-01T12:30:40;4.35;;;3.63;;
20611;SDS011;10465;42.686;23.364;2023-08-01T12:33:07;5.32;;;3.83;;
20611;SDS011;10465;42.686;23.364;2023-08-01T12:35:33;4.68;;;3.95;;
20611;SDS011;10465;42.686;23.364;2023-08-01T12:37:58;4.18;;;3.72;;
20611;SDS011;10465;42.686;23.364;2023-08-01T12:40:24;4.22;;;3.50;;
20611;SDS011;10465;42.686;23.364;2023-08-01T12:42:49;4.50;;;3.80;;
20611;SDS011;10465;42.686;23.364;2023-08-01T12:45:15;5.20;;;3.83;;
20611;SDS011;10465;42.686;23.364;2023-08-01T12:47:41;4.70;;;3.50;;
20611;SDS011;10465;42.686;23.364;2023-08-01T12:50:07;4.07;;;3.63;;
20611;SDS011;10465;42.686;23.364;2023-08-01T12:52:32;6.15;;;3.53;;
20611;SDS011;10465;42.686;23.364;2023-08-01T12:54:58;4.95;;;3.97;;
20611;SDS011;10465;42.686;23.364;2023-08-01T12:57:23;3.92;;;3.13;;
20611;SDS011;10465;42.686;23.364;2023-08-01T12:59:49;5.43;;;3.45;;
20611;SDS011;10465;42.686;23.364;2023-08-01T13:02:14;5.70;;;3.80;;
20611;SDS011;10465;42.686;23.364;2023-08-01T13:04:40;7.47;;;3.88;;
20611;SDS011;10465;42.686;23.364;2023-08-01T13:07:05;7.13;;;3.83;;
20611;SDS011;10465;42.686;23.364;2023-08-01T13:09:31;3.70;;;3.40;;
20611;SDS011;10465;42.686;23.364;2023-08-01T13:11:56;4.13;;;3.63;;
20611;SDS011;10465;42.686;23.364;2023-08-01T13:14:24;6.07;;;3.88;;
20611;SDS011;10465;42.686;23.364;2023-08-01T13:16:49;7.10;;;4.05;;
20611;SDS011;10465;42.686;23.364;2023-08-01T13:19:15;4.60;;;3.40;;
20611;SDS011;10465;42.686;23.364;2023-08-01T13:21:40;5.38;;;3.65;;
20611;SDS011;10465;42.686;23.364;2023-08-01T13:24:06;8.05;;;3.60;;
20611;SDS011;10465;42.686;23.364;2023-08-01T13:26:31;3.58;;;3.28;;
20611;SDS011;10465;42.686;23.364;2023-08-01T13:28:57;5.90;;;3.25;;
20611;SDS011;10465;42.686;23.364;2023-08-01T13:31:23;4.32;;;3.58;;
20611;SDS011;10465;42.686;23.364;2023-08-01T13:33:49;5.72;;;3.80;;
20611;SDS011;10465;42.686;23.364;2023-08-01T13:36:14;9.00;;;3.92;;
20611;SDS011;10465;42.686;23.364;2023-08-01T13:38:42;5.90;;;3.25;;
20611;SDS011;10465;42.686;23.364;2023-08-01T13:41:08;5.57;;;3.53;;
20611;SDS011;10465;42.686;23.364;2023-08-01T13:43:33;5.60;;;4.10;;
20611;SDS011;10465;42.686;23.364;2023-08-01T13:45:59;4.25;;;3.53;;
20611;SDS011;10465;42.686;23.364;2023-08-01T13:48:24;5.18;;;3.80;;
20611;SDS011;10465;42.686;23.364;2023-08-01T13:50:50;15.60;;;4.95;;
20611;SDS011;10465;42.686;23.364;2023-08-01T13:53:15;5.82;;;3.55;;
20611;SDS011;10465;42.686;23.364;2023-08-01T13:55:42;6.57;;;3.95;;
20611;SDS011;10465;42.686;23.364;2023-08-01T13:58:07;4.38;;;3.63;;
20611;SDS011;10465;42.686;23.364;2023-08-01T14:00:33;5.72;;;3.75;;
20611;SDS011;10465;42.686;23.364;2023-08-01T14:02:58;6.03;;;3.30;;
20611;SDS011;10465;42.686;23.364;2023-08-01T14:05:25;4.57;;;3.42;;
20611;SDS011;10465;42.686;23.364;2023-08-01T14:07:51;8.80;;;3.30;;
20611;SDS011;10465;42.686;23.364;2023-08-01T14:10:17;4.18;;;3.15;;
20611;SDS011;10465;42.686;23.364;2023-08-01T14:12:42;5.30;;;3.70;;
20611;SDS011;10465;42.686;23.364;2023-08-01T14:15:08;6.43;;;4.22;;
20611;SDS011;10465;42.686;23.364;2023-08-01T14:17:34;7.60;;;4.30;;
20611;SDS011;10465;42.686;23.364;2023-08-01T14:20:00;6.20;;;4.05;;
20611;SDS011;10465;42.686;23.364;2023-08-01T14:22:26;6.00;;;3.97;;
20611;SDS011;10465;42.686;23.364;2023-08-01T14:24:51;4.10;;;3.40;;
20611;SDS011;10465;42.686;23.364;2023-08-01T14:27:16;6.85;;;3.55;;
20611;SDS011;10465;42.686;23.364;2023-08-01T14:29:42;4.95;;;3.72;;
20611;SDS011;10465;42.686;23.364;2023-08-01T14:32:07;6.43;;;4.00;;
20611;SDS011;10465;42.686;23.364;2023-08-01T14:34:33;4.30;;;3.80;;